Airport Name : Campo Dos Bugres

Other Name : Caxias Do Sul

ICAO : SBCX

IATA : CXJ

FAA :

Latitude : -29.197064

Longitude : -51.187536

Country : Brazil

Local Date and Time : 7/18/2018 6:53:00 PM

 

TAF (Terminal Aerodrome Forecast)

 

METAR (METeorological Aerodrome Report)

SBCX 182000Z 36006KT CAVOK 23/17 Q1018

SBCX 181800Z 30006KT CAVOK 24/20 Q1019